sensor_id;sensor_type;location;lat;lon;timestamp;temperature;humidity
12632;DHT22;6381;45.748;12.106;2024-03-02T00:02:20;11.40;99.90
12632;DHT22;6381;45.748;12.106;2024-03-02T00:04:50;11.30;99.90
12632;DHT22;6381;45.748;12.106;2024-03-02T00:07:20;11.40;99.90
12632;DHT22;6381;45.748;12.106;2024-03-02T00:09:53;11.20;99.90
12632;DHT22;6381;45.748;12.106;2024-03-02T00:12:25;11.30;99.90
12632;DHT22;6381;45.748;12.106;2024-03-02T00:14:55;11.20;99.90
12632;DHT22;6381;45.748;12.106;2024-03-02T00:17:25;11.20;99.90
12632;DHT22;6381;45.748;12.106;2024-03-02T00:19:56;11.10;99.90
12632;DHT22;6381;45.748;12.106;2024-03-02T00:22:26;11.30;99.90
12632;DHT22;6381;45.748;12.106;2024-03-02T00:24:56;11.30;99.90
12632;DHT22;6381;45.748;12.106;2024-03-02T00:27:27;11.30;99.90
12632;DHT22;6381;45.748;12.106;2024-03-02T00:29:58;11.20;99.90
12632;DHT22;6381;45.748;12.106;2024-03-02T00:32:30;11.30;99.90
12632;DHT22;6381;45.748;12.106;2024-03-02T00:35:00;11.30;99.90
12632;DHT22;6381;45.748;12.106;2024-03-02T00:37:30;11.30;99.90
12632;DHT22;6381;45.748;12.106;2024-03-02T00:40:01;11.20;99.90
12632;DHT22;6381;45.748;12.106;2024-03-02T00:42:34;11.20;99.90
12632;DHT22;6381;45.748;12.106;2024-03-02T00:45:08;11.10;99.90
12632;DHT22;6381;45.748;12.106;2024-03-02T00:47:38;11.00;99.90
12632;DHT22;6381;45.748;12.106;2024-03-02T00:50:09;11.00;99.90
12632;DHT22;6381;45.748;12.106;2024-03-02T00:52:50;11.00;99.90
12632;DHT22;6381;45.748;12.106;2024-03-02T00:55:20;11.10;99.90
12632;DHT22;6381;45.748;12.106;2024-03-02T00:57:52;11.10;99.90
12632;DHT22;6381;45.748;12.106;2024-03-02T01:00:22;11.10;99.90
12632;DHT22;6381;45.748;12.106;2024-03-02T01:02:51;11.00;99.90
12632;DHT22;6381;45.748;12.106;2024-03-02T01:05:21;11.00;99.90
12632;DHT22;6381;45.748;12.106;2024-03-02T01:07:51;11.00;99.90
12632;DHT22;6381;45.748;12.106;2024-03-02T01:10:21;11.00;99.90
12632;DHT22;6381;45.748;12.106;2024-03-02T01:12:52;11.10;99.90
12632;DHT22;6381;45.748;12.106;2024-03-02T01:15:22;11.00;99.90
12632;DHT22;6381;45.748;12.106;2024-03-02T01:17:52;11.10;99.90
12632;DHT22;6381;45.748;12.106;2024-03-02T01:20:25;11.10;99.90
12632;DHT22;6381;45.748;12.106;2024-03-02T01:22:55;11.10;99.90
12632;DHT22;6381;45.748;12.106;2024-03-02T01:25:24;11.10;99.90
12632;DHT22;6381;45.748;12.106;2024-03-02T01:27:56;11.20;99.90
12632;DHT22;6381;45.748;12.106;2024-03-02T01:30:26;11.30;99.90
12632;DHT22;6381;45.748;12.106;2024-03-02T01:32:58;11.40;99.90
12632;DHT22;6381;45.748;12.106;2024-03-02T01:35:28;11.30;99.90
12632;DHT22;6381;45.748;12.106;2024-03-02T01:37:58;11.30;99.90
12632;DHT22;6381;45.748;12.106;2024-03-02T01:40:28;11.40;99.90
12632;DHT22;6381;45.748;12.106;2024-03-02T01:42:59;11.30;99.90
12632;DHT22;6381;45.748;12.106;2024-03-02T01:45:30;11.40;99.90
12632;DHT22;6381;45.748;12.106;2024-03-02T01:48:01;11.40;99.90
12632;DHT22;6381;45.748;12.106;2024-03-02T01:50:32;11.30;99.90
12632;DHT22;6381;45.748;12.106;2024-03-02T01:53:02;11.40;99.90
12632;DHT22;6381;45.748;12.106;2024-03-02T01:55:32;11.30;99.90
12632;DHT22;6381;45.748;12.106;2024-03-02T01:58:04;11.40;99.90
12632;DHT22;6381;45.748;12.106;2024-03-02T02:00:34;11.50;99.90
12632;DHT22;6381;45.748;12.106;2024-03-02T02:03:05;11.40;99.90
12632;DHT22;6381;45.748;12.106;2024-03-02T02:05:35;11.40;99.90
12632;DHT22;6381;45.748;12.106;2024-03-02T02:08:05;11.40;99.90
12632;DHT22;6381;45.748;12.106;2024-03-02T02:10:36;11.50;99.90
12632;DHT22;6381;45.748;12.106;2024-03-02T02:13:07;11.20;99.90
12632;DHT22;6381;45.748;12.106;2024-03-02T02:15:37;11.50;99.90
12632;DHT22;6381;45.748;12.106;2024-03-02T02:18:07;11.40;99.90
12632;DHT22;6381;45.748;12.106;2024-03-02T02:20:37;11.30;99.90
12632;DHT22;6381;45.748;12.106;2024-03-02T02:23:09;11.20;99.90
12632;DHT22;6381;45.748;12.106;2024-03-02T02:25:38;11.30;99.90
12632;DHT22;6381;45.748;12.106;2024-03-02T02:28:08;11.10;99.90
12632;DHT22;6381;45.748;12.106;2024-03-02T02:30:38;11.10;99.90
12632;DHT22;6381;45.748;12.106;2024-03-02T02:33:08;11.00;99.90
12632;DHT22;6381;45.748;12.106;2024-03-02T02:35:38;11.10;99.90
12632;DHT22;6381;45.748;12.106;2024-03-02T02:38:09;11.10;99.90
12632;DHT22;6381;45.748;12.106;2024-03-02T02:40:39;11.00;99.90
12632;DHT22;6381;45.748;12.106;2024-03-02T02:43:09;11.10;99.90
12632;DHT22;6381;45.748;12.106;2024-03-02T02:45:39;11.00;99.90
12632;DHT22;6381;45.748;12.106;2024-03-02T02:48:09;11.00;99.90
12632;DHT22;6381;45.748;12.106;2024-03-02T02:50:39;10.90;99.90
12632;DHT22;6381;45.748;12.106;2024-03-02T02:53:12;10.80;99.90
12632;DHT22;6381;45.748;12.106;2024-03-02T02:55:42;10.90;99.90
12632;DHT22;6381;45.748;12.106;2024-03-02T02:58:12;10.90;99.90
12632;DHT22;6381;45.748;12.106;2024-03-02T03:00:42;10.90;99.90
12632;DHT22;6381;45.748;12.106;2024-03-02T03:03:12;11.00;99.90
12632;DHT22;6381;45.748;12.106;2024-03-02T03:05:42;10.80;99.90
12632;DHT22;6381;45.748;12.106;2024-03-02T03:08:14;10.90;99.90
12632;DHT22;6381;45.748;12.106;2024-03-02T03:10:45;10.90;99.90
12632;DHT22;6381;45.748;12.106;2024-03-02T03:13:15;10.90;99.90
12632;DHT22;6381;45.748;12.106;2024-03-02T03:15:45;10.80;99.90
12632;DHT22;6381;45.748;12.106;2024-03-02T03:18:15;10.70;99.90
12632;DHT22;6381;45.748;12.106;2024-03-02T03:20:45;10.80;99.90
12632;DHT22;6381;45.748;12.106;2024-03-02T03:23:16;10.70;99.90
12632;DHT22;6381;45.748;12.106;2024-03-02T03:25:46;10.70;99.90
12632;DHT22;6381;45.748;12.106;2024-03-02T03:28:16;10.70;99.90
12632;DHT22;6381;45.748;12.106;2024-03-02T03:30:46;10.70;99.90
12632;DHT22;6381;45.748;12.106;2024-03-02T03:33:17;10.70;99.90
12632;DHT22;6381;45.748;12.106;2024-03-02T03:35:46;10.70;99.90
12632;DHT22;6381;45.748;12.106;2024-03-02T03:38:18;10.80;99.90
12632;DHT22;6381;45.748;12.106;2024-03-02T03:40:48;10.70;99.90
12632;DHT22;6381;45.748;12.106;2024-03-02T03:43:19;10.80;99.90
12632;DHT22;6381;45.748;12.106;2024-03-02T03:45:50;10.50;99.90
12632;DHT22;6381;45.748;12.106;2024-03-02T03:48:20;10.70;99.90
12632;DHT22;6381;45.748;12.106;2024-03-02T03:50:50;10.60;99.90
12632;DHT22;6381;45.748;12.106;2024-03-02T03:53:22;10.70;99.90
12632;DHT22;6381;45.748;12.106;2024-03-02T03:55:53;10.70;99.90
12632;DHT22;6381;45.748;12.106;2024-03-02T03:58:24;10.70;99.90
12632;DHT22;6381;45.748;12.106;2024-03-02T04:00:54;10.90;99.90
12632;DHT22;6381;45.748;12.106;2024-03-02T04:03:24;10.80;99.90
12632;DHT22;6381;45.748;12.106;2024-03-02T04:05:55;10.70;99.90
12632;DHT22;6381;45.748;12.106;2024-03-02T04:08:26;10.70;99.90
12632;DHT22;6381;45.748;12.106;2024-03-02T04:10:56;10.70;99.90
12632;DHT22;6381;45.748;12.106;2024-03-02T04:13:26;10.70;99.90
12632;DHT22;6381;45.748;12.106;2024-03-02T04:15:57;10.70;99.90
12632;DHT22;6381;45.748;12.106;2024-03-02T04:18:30;10.70;99.90
12632;DHT22;6381;45.748;12.106;2024-03-02T04:21:01;10.60;99.90
12632;DHT22;6381;45.748;12.106;2024-03-02T04:23:36;10.70;99.90
12632;DHT22;6381;45.748;12.106;2024-03-02T04:26:05;10.80;99.90
12632;DHT22;6381;45.748;12.106;2024-03-02T04:28:36;10.70;99.90
12632;DHT22;6381;45.748;12.106;2024-03-02T04:31:06;10.70;99.90
12632;DHT22;6381;45.748;12.106;2024-03-02T04:33:36;10.70;99.90
12632;DHT22;6381;45.748;12.106;2024-03-02T04:36:07;10.70;99.90
12632;DHT22;6381;45.748;12.106;2024-03-02T04:38:41;10.70;99.90
12632;DHT22;6381;45.748;12.106;2024-03-02T04:41:11;10.90;99.90
12632;DHT22;6381;45.748;12.106;2024-03-02T04:43:41;10.80;99.90
12632;DHT22;6381;45.748;12.106;2024-03-02T04:46:10;10.90;99.90
12632;DHT22;6381;45.748;12.106;2024-03-02T04:48:42;10.90;99.90
12632;DHT22;6381;45.748;12.106;2024-03-02T04:51:12;11.00;99.90
12632;DHT22;6381;45.748;12.106;2024-03-02T04:53:44;10.90;99.90
12632;DHT22;6381;45.748;12.106;2024-03-02T04:56:16;11.00;99.90
12632;DHT22;6381;45.748;12.106;2024-03-02T04:59:06;10.90;99.90
12632;DHT22;6381;45.748;12.106;2024-03-02T05:01:36;10.80;99.90
12632;DHT22;6381;45.748;12.106;2024-03-02T05:04:06;10.70;99.90
12632;DHT22;6381;45.748;12.106;2024-03-02T05:06:37;11.00;99.90
12632;DHT22;6381;45.748;12.106;2024-03-02T05:09:09;10.80;99.90
12632;DHT22;6381;45.748;12.106;2024-03-02T05:11:40;10.90;99.90
12632;DHT22;6381;45.748;12.106;2024-03-02T05:14:39;14.00;99.90
12632;DHT22;6381;45.748;12.106;2024-03-02T05:17:09;10.80;99.90
12632;DHT22;6381;45.748;12.106;2024-03-02T05:19:39;10.80;99.90
12632;DHT22;6381;45.748;12.106;2024-03-02T05:22:09;10.80;99.90
12632;DHT22;6381;45.748;12.106;2024-03-02T05:24:41;10.80;99.90
12632;DHT22;6381;45.748;12.106;2024-03-02T05:27:10;11.00;99.90
12632;DHT22;6381;45.748;12.106;2024-03-02T05:29:41;11.00;99.90
12632;DHT22;6381;45.748;12.106;2024-03-02T05:32:11;10.90;99.90
12632;DHT22;6381;45.748;12.106;2024-03-02T05:34:41;11.00;99.90
12632;DHT22;6381;45.748;12.106;2024-03-02T05:37:10;10.80;99.90
12632;DHT22;6381;45.748;12.106;2024-03-02T05:39:42;10.90;99.90
12632;DHT22;6381;45.748;12.106;2024-03-02T05:42:13;11.00;99.90
12632;DHT22;6381;45.748;12.106;2024-03-02T05:44:44;11.00;99.90
12632;DHT22;6381;45.748;12.106;2024-03-02T05:47:15;10.90;99.90
12632;DHT22;6381;45.748;12.106;2024-03-02T05:49:46;10.80;99.90
12632;DHT22;6381;45.748;12.106;2024-03-02T05:52:16;10.80;99.90
12632;DHT22;6381;45.748;12.106;2024-03-02T05:54:47;10.90;99.90
12632;DHT22;6381;45.748;12.106;2024-03-02T05:57:18;10.80;99.90
12632;DHT22;6381;45.748;12.106;2024-03-02T06:00:02;10.70;99.90
12632;DHT22;6381;45.748;12.106;2024-03-02T06:02:39;10.70;99.90
12632;DHT22;6381;45.748;12.106;2024-03-02T06:05:10;10.90;99.90
12632;DHT22;6381;45.748;12.106;2024-03-02T06:07:40;10.90;99.90
12632;DHT22;6381;45.748;12.106;2024-03-02T06:10:11;10.80;99.90
12632;DHT22;6381;45.748;12.106;2024-03-02T06:12:41;11.00;99.90
12632;DHT22;6381;45.748;12.106;2024-03-02T06:15:11;10.90;99.90
12632;DHT22;6381;45.748;12.106;2024-03-02T06:17:42;11.00;99.90
12632;DHT22;6381;45.748;12.106;2024-03-02T06:20:12;10.80;99.90
12632;DHT22;6381;45.748;12.106;2024-03-02T06:22:42;10.90;99.90
12632;DHT22;6381;45.748;12.106;2024-03-02T06:25:13;10.90;99.90
12632;DHT22;6381;45.748;12.106;2024-03-02T06:27:43;11.00;99.90
12632;DHT22;6381;45.748;12.106;2024-03-02T06:30:14;10.90;99.90
12632;DHT22;6381;45.748;12.106;2024-03-02T06:32:44;11.00;99.90
12632;DHT22;6381;45.748;12.106;2024-03-02T06:35:14;11.10;99.90
12632;DHT22;6381;45.748;12.106;2024-03-02T06:37:44;11.20;99.90
12632;DHT22;6381;45.748;12.106;2024-03-02T06:40:16;11.20;99.90
12632;DHT22;6381;45.748;12.106;2024-03-02T06:42:46;11.10;99.90
12632;DHT22;6381;45.748;12.106;2024-03-02T06:45:16;11.20;99.90
12632;DHT22;6381;45.748;12.106;2024-03-02T06:47:46;11.30;99.90
12632;DHT22;6381;45.748;12.106;2024-03-02T06:50:16;11.20;99.90
12632;DHT22;6381;45.748;12.106;2024-03-02T06:52:46;11.30;99.90
12632;DHT22;6381;45.748;12.106;2024-03-02T06:55:18;11.20;99.90
12632;DHT22;6381;45.748;12.106;2024-03-02T06:57:48;11.20;99.90
12632;DHT22;6381;45.748;12.106;2024-03-02T07:00:19;11.20;99.90
12632;DHT22;6381;45.748;12.106;2024-03-02T07:02:49;11.30;99.90
12632;DHT22;6381;45.748;12.106;2024-03-02T07:05:19;11.30;99.90
12632;DHT22;6381;45.748;12.106;2024-03-02T07:07:49;11.20;99.90
12632;DHT22;6381;45.748;12.106;2024-03-02T07:10:22;11.20;99.90
12632;DHT22;6381;45.748;12.106;2024-03-02T07:12:52;11.30;99.90
12632;DHT22;6381;45.748;12.106;2024-03-02T07:15:22;11.20;99.90
12632;DHT22;6381;45.748;12.106;2024-03-02T07:18:11;11.20;99.90
12632;DHT22;6381;45.748;12.106;2024-03-02T07:20:42;11.20;99.90
12632;DHT22;6381;45.748;12.106;2024-03-02T07:23:11;11.30;99.90
12632;DHT22;6381;45.748;12.106;2024-03-02T07:25:44;11.30;99.90
12632;DHT22;6381;45.748;12.106;2024-03-02T07:28:17;11.40;99.90
12632;DHT22;6381;45.748;12.106;2024-03-02T07:30:47;11.30;99.90
12632;DHT22;6381;45.748;12.106;2024-03-02T07:33:17;11.40;99.90
12632;DHT22;6381;45.748;12.106;2024-03-02T07:35:47;11.50;99.90
12632;DHT22;6381;45.748;12.106;2024-03-02T07:38:17;11.40;99.90
12632;DHT22;6381;45.748;12.106;2024-03-02T07:40:49;11.60;99.90
12632;DHT22;6381;45.748;12.106;2024-03-02T07:43:19;11.40;99.90
12632;DHT22;6381;45.748;12.106;2024-03-02T07:45:50;11.50;99.90
12632;DHT22;6381;45.748;12.106;2024-03-02T07:48:20;11.40;99.90
12632;DHT22;6381;45.748;12.106;2024-03-02T07:50:50;11.60;99.90
12632;DHT22;6381;45.748;12.106;2024-03-02T07:53:20;11.60;99.90
12632;DHT22;6381;45.748;12.106;2024-03-02T07:55:52;11.80;99.90
12632;DHT22;6381;45.748;12.106;2024-03-02T07:58:22;11.80;99.90
12632;DHT22;6381;45.748;12.106;2024-03-02T08:00:52;11.80;99.90
12632;DHT22;6381;45.748;12.106;2024-03-02T08:03:22;11.70;99.90
12632;DHT22;6381;45.748;12.106;2024-03-02T08:05:53;11.90;99.90
12632;DHT22;6381;45.748;12.106;2024-03-02T08:08:23;11.80;99.90
12632;DHT22;6381;45.748;12.106;2024-03-02T08:10:55;11.80;99.90
12632;DHT22;6381;45.748;12.106;2024-03-02T08:13:28;11.70;99.90
12632;DHT22;6381;45.748;12.106;2024-03-02T08:15:58;11.80;99.90
12632;DHT22;6381;45.748;12.106;2024-03-02T08:18:28;11.70;99.90
12632;DHT22;6381;45.748;12.106;2024-03-02T08:20:58;11.80;99.90
12632;DHT22;6381;45.748;12.106;2024-03-02T08:23:28;11.90;99.90
12632;DHT22;6381;45.748;12.106;2024-03-02T08:26:00;11.80;99.90
12632;DHT22;6381;45.748;12.106;2024-03-02T08:28:29;11.90;99.90
12632;DHT22;6381;45.748;12.106;2024-03-02T08:30:59;11.80;99.90
12632;DHT22;6381;45.748;12.106;2024-03-02T08:33:30;11.90;99.90
12632;DHT22;6381;45.748;12.106;2024-03-02T08:36:02;11.70;99.90
12632;DHT22;6381;45.748;12.106;2024-03-02T08:38:33;11.80;99.90
12632;DHT22;6381;45.748;12.106;2024-03-02T08:41:05;11.70;99.90
12632;DHT22;6381;45.748;12.106;2024-03-02T08:43:35;11.70;99.90
12632;DHT22;6381;45.748;12.106;2024-03-02T08:46:05;11.70;99.90
12632;DHT22;6381;45.748;12.106;2024-03-02T08:48:35;11.80;99.90
12632;DHT22;6381;45.748;12.106;2024-03-02T08:51:05;11.80;99.90
12632;DHT22;6381;45.748;12.106;2024-03-02T08:53:36;11.90;99.90
12632;DHT22;6381;45.748;12.106;2024-03-02T08:56:08;11.80;99.90
12632;DHT22;6381;45.748;12.106;2024-03-02T08:58:38;11.90;99.90
12632;DHT22;6381;45.748;12.106;2024-03-02T09:01:08;12.00;99.90
12632;DHT22;6381;45.748;12.106;2024-03-02T09:03:37;11.90;99.90
12632;DHT22;6381;45.748;12.106;2024-03-02T09:06:07;11.90;99.90
12632;DHT22;6381;45.748;12.106;2024-03-02T09:08:37;11.80;99.90
12632;DHT22;6381;45.748;12.106;2024-03-02T09:11:10;11.90;99.90
12632;DHT22;6381;45.748;12.106;2024-03-02T09:13:40;12.00;99.90
12632;DHT22;6381;45.748;12.106;2024-03-02T09:16:11;12.00;99.90
12632;DHT22;6381;45.748;12.106;2024-03-02T09:18:41;12.00;99.90
12632;DHT22;6381;45.748;12.106;2024-03-02T09:21:11;12.20;99.90
12632;DHT22;6381;45.748;12.106;2024-03-02T09:23:41;12.20;99.90
12632;DHT22;6381;45.748;12.106;2024-03-02T09:28:48;12.40;99.90
12632;DHT22;6381;45.748;12.106;2024-03-02T09:31:18;12.40;99.90
12632;DHT22;6381;45.748;12.106;2024-03-02T09:33:48;12.50;99.90
12632;DHT22;6381;45.748;12.106;2024-03-02T09:36:23;12.60;99.90
12632;DHT22;6381;45.748;12.106;2024-03-02T09:38:53;12.70;99.90
12632;DHT22;6381;45.748;12.106;2024-03-02T09:41:26;12.60;99.90
12632;DHT22;6381;45.748;12.106;2024-03-02T09:43:58;12.70;99.90
12632;DHT22;6381;45.748;12.106;2024-03-02T09:46:28;12.50;99.90
12632;DHT22;6381;45.748;12.106;2024-03-02T09:48:59;12.70;99.90
12632;DHT22;6381;45.748;12.106;2024-03-02T09:51:29;12.60;99.90
12632;DHT22;6381;45.748;12.106;2024-03-02T09:54:01;12.70;99.90
12632;DHT22;6381;45.748;12.106;2024-03-02T09:56:46;12.80;99.90
12632;DHT22;6381;45.748;12.106;2024-03-02T09:59:18;12.80;99.90
12632;DHT22;6381;45.748;12.106;2024-03-02T10:01:58;12.90;99.90
12632;DHT22;6381;45.748;12.106;2024-03-02T10:04:31;12.90;99.90
12632;DHT22;6381;45.748;12.106;2024-03-02T10:07:11;13.00;99.90
12632;DHT22;6381;45.748;12.106;2024-03-02T10:09:42;13.00;99.90
12632;DHT22;6381;45.748;12.106;2024-03-02T10:12:15;12.80;99.90
12632;DHT22;6381;45.748;12.106;2024-03-02T10:14:46;12.80;99.90
12632;DHT22;6381;45.748;12.106;2024-03-02T10:17:18;12.80;99.90
12632;DHT22;6381;45.748;12.106;2024-03-02T10:19:48;12.90;99.90
12632;DHT22;6381;45.748;12.106;2024-03-02T10:22:18;12.90;99.90
12632;DHT22;6381;45.748;12.106;2024-03-02T10:24:48;12.80;99.90
12632;DHT22;6381;45.748;12.106;2024-03-02T10:27:27;12.80;99.90
12632;DHT22;6381;45.748;12.106;2024-03-02T10:29:58;12.80;99.90
12632;DHT22;6381;45.748;12.106;2024-03-02T10:32:28;12.70;99.90
12632;DHT22;6381;45.748;12.106;2024-03-02T10:34:58;12.80;99.90
12632;DHT22;6381;45.748;12.106;2024-03-02T10:37:29;12.90;99.90
12632;DHT22;6381;45.748;12.106;2024-03-02T10:40:04;13.00;99.90
12632;DHT22;6381;45.748;12.106;2024-03-02T10:42:38;13.10;99.90
12632;DHT22;6381;45.748;12.106;2024-03-02T10:45:09;13.10;99.90
12632;DHT22;6381;45.748;12.106;2024-03-02T10:47:41;13.00;99.90
12632;DHT22;6381;45.748;12.106;2024-03-02T10:50:12;12.90;99.90
12632;DHT22;6381;45.748;12.106;2024-03-02T10:52:43;12.80;99.90
12632;DHT22;6381;45.748;12.106;2024-03-02T10:55:13;12.70;99.90
12632;DHT22;6381;45.748;12.106;2024-03-02T10:57:50;12.60;99.90
12632;DHT22;6381;45.748;12.106;2024-03-02T11:00:23;12.70;99.90
12632;DHT22;6381;45.748;12.106;2024-03-02T11:03:02;12.70;99.90
12632;DHT22;6381;45.748;12.106;2024-03-02T11:05:36;12.80;99.90
12632;DHT22;6381;45.748;12.106;2024-03-02T11:08:13;12.80;99.90
12632;DHT22;6381;45.748;12.106;2024-03-02T11:10:51;12.80;99.90
12632;DHT22;6381;45.748;12.106;2024-03-02T11:13:30;12.70;99.90
12632;DHT22;6381;45.748;12.106;2024-03-02T11:16:09;12.50;99.90
12632;DHT22;6381;45.748;12.106;2024-03-02T11:18:43;12.30;99.90
12632;DHT22;6381;45.748;12.106;2024-03-02T11:21:13;12.50;99.90
12632;DHT22;6381;45.748;12.106;2024-03-02T11:23:43;12.50;99.90
12632;DHT22;6381;45.748;12.106;2024-03-02T11:26:21;12.20;99.90
12632;DHT22;6381;45.748;12.106;2024-03-02T11:28:53;12.10;99.90
12632;DHT22;6381;45.748;12.106;2024-03-02T11:31:57;12.00;99.90
12632;DHT22;6381;45.748;12.106;2024-03-02T11:34:32;12.00;99.90
12632;DHT22;6381;45.748;12.106;2024-03-02T11:37:03;12.20;99.90
12632;DHT22;6381;45.748;12.106;2024-03-02T11:39:34;12.20;99.90
12632;DHT22;6381;45.748;12.106;2024-03-02T11:42:07;12.30;99.90
12632;DHT22;6381;45.748;12.106;2024-03-02T11:44:42;12.20;99.90
12632;DHT22;6381;45.748;12.106;2024-03-02T11:47:14;12.30;99.90
12632;DHT22;6381;45.748;12.106;2024-03-02T11:49:45;12.00;99.90
12632;DHT22;6381;45.748;12.106;2024-03-02T11:52:18;12.20;99.90
12632;DHT22;6381;45.748;12.106;2024-03-02T11:54:53;12.20;99.90
12632;DHT22;6381;45.748;12.106;2024-03-02T11:57:24;12.20;99.90
12632;DHT22;6381;45.748;12.106;2024-03-02T11:59:57;12.10;99.90
12632;DHT22;6381;45.748;12.106;2024-03-02T12:02:27;12.20;99.90
12632;DHT22;6381;45.748;12.106;2024-03-02T12:04:57;12.20;99.90
12632;DHT22;6381;45.748;12.106;2024-03-02T12:07:28;12.10;99.90
12632;DHT22;6381;45.748;12.106;2024-03-02T12:10:02;12.20;99.90
12632;DHT22;6381;45.748;12.106;2024-03-02T12:12:34;12.10;99.90
12632;DHT22;6381;45.748;12.106;2024-03-02T12:15:07;12.10;99.90
12632;DHT22;6381;45.748;12.106;2024-03-02T12:17:38;12.20;99.90
12632;DHT22;6381;45.748;12.106;2024-03-02T12:20:12;12.00;99.90
12632;DHT22;6381;45.748;12.106;2024-03-02T12:22:42;11.90;99.90
12632;DHT22;6381;45.748;12.106;2024-03-02T12:25:14;12.00;99.90
12632;DHT22;6381;45.748;12.106;2024-03-02T12:27:49;11.90;99.90
12632;DHT22;6381;45.748;12.106;2024-03-02T12:30:22;12.10;99.90
12632;DHT22;6381;45.748;12.106;2024-03-02T12:32:54;12.00;99.90
12632;DHT22;6381;45.748;12.106;2024-03-02T12:35:25;12.10;99.90
12632;DHT22;6381;45.748;12.106;2024-03-02T12:37:55;12.00;99.90
12632;DHT22;6381;45.748;12.106;2024-03-02T12:40:30;12.00;99.90
12632;DHT22;6381;45.748;12.106;2024-03-02T12:43:04;11.80;99.90
12632;DHT22;6381;45.748;12.106;2024-03-02T12:45:39;12.00;99.90
12632;DHT22;6381;45.748;12.106;2024-03-02T12:48:09;12.00;99.90
12632;DHT22;6381;45.748;12.106;2024-03-02T12:50:40;12.00;99.90
12632;DHT22;6381;45.748;12.106;2024-03-02T12:53:15;12.00;99.90
12632;DHT22;6381;45.748;12.106;2024-03-02T12:55:45;12.10;99.90
12632;DHT22;6381;45.748;12.106;2024-03-02T12:58:19;12.30;99.90
12632;DHT22;6381;45.748;12.106;2024-03-02T13:01:08;12.30;99.90
12632;DHT22;6381;45.748;12.106;2024-03-02T13:03:39;12.60;99.90
12632;DHT22;6381;45.748;12.106;2024-03-02T13:06:11;12.60;99.90
12632;DHT22;6381;45.748;12.106;2024-03-02T13:08:45;12.50;99.90
12632;DHT22;6381;45.748;12.106;2024-03-02T13:11:16;12.60;99.90
12632;DHT22;6381;45.748;12.106;2024-03-02T13:13:48;12.50;99.90
12632;DHT22;6381;45.748;12.106;2024-03-02T13:16:20;12.60;99.90
12632;DHT22;6381;45.748;12.106;2024-03-02T13:19:00;12.80;99.90
12632;DHT22;6381;45.748;12.106;2024-03-02T13:21:37;12.60;99.90
12632;DHT22;6381;45.748;12.106;2024-03-02T13:24:07;12.50;99.90
12632;DHT22;6381;45.748;12.106;2024-03-02T13:26:39;12.70;99.90
12632;DHT22;6381;45.748;12.106;2024-03-02T13:29:09;12.70;99.90
12632;DHT22;6381;45.748;12.106;2024-03-02T13:31:40;12.70;99.90
12632;DHT22;6381;45.748;12.106;2024-03-02T13:34:17;12.60;99.90
12632;DHT22;6381;45.748;12.106;2024-03-02T13:36:55;12.60;99.90
12632;DHT22;6381;45.748;12.106;2024-03-02T13:39:41;12.60;99.90
12632;DHT22;6381;45.748;12.106;2024-03-02T13:42:21;12.60;99.90
12632;DHT22;6381;45.748;12.106;2024-03-02T13:45:10;12.50;99.90
12632;DHT22;6381;45.748;12.106;2024-03-02T13:47:46;12.50;99.90
12632;DHT22;6381;45.748;12.106;2024-03-02T13:50:18;12.50;99.90
12632;DHT22;6381;45.748;12.106;2024-03-02T13:52:55;12.80;99.90
12632;DHT22;6381;45.748;12.106;2024-03-02T13:55:36;12.90;99.90
12632;DHT22;6381;45.748;12.106;2024-03-02T13:58:13;12.80;99.90
12632;DHT22;6381;45.748;12.106;2024-03-02T14:00:55;12.80;99.90
12632;DHT22;6381;45.748;12.106;2024-03-02T14:03:42;13.00;99.90
12632;DHT22;6381;45.748;12.106;2024-03-02T14:06:22;13.10;99.90
12632;DHT22;6381;45.748;12.106;2024-03-02T14:09:00;12.90;99.90
12632;DHT22;6381;45.748;12.106;2024-03-02T14:11:33;12.90;99.90
12632;DHT22;6381;45.748;12.106;2024-03-02T14:14:26;13.10;99.90
12632;DHT22;6381;45.748;12.106;2024-03-02T14:17:06;13.10;99.90
12632;DHT22;6381;45.748;12.106;2024-03-02T14:19:48;13.30;99.90
12632;DHT22;6381;45.748;12.106;2024-03-02T14:22:24;13.20;99.90
12632;DHT22;6381;45.748;12.106;2024-03-02T14:25:07;13.30;99.90
12632;DHT22;6381;45.748;12.106;2024-03-02T14:27:48;13.30;99.90
12632;DHT22;6381;45.748;12.106;2024-03-02T14:30:45;13.30;99.90
12632;DHT22;6381;45.748;12.106;2024-03-02T14:33:24;13.70;99.90
12632;DHT22;6381;45.748;12.106;2024-03-02T14:36:04;13.60;99.90
12632;DHT22;6381;45.748;12.106;2024-03-02T14:38:37;13.50;99.90
12632;DHT22;6381;45.748;12.106;2024-03-02T14:41:09;13.40;99.90
12632;DHT22;6381;45.748;12.106;2024-03-02T14:43:43;13.40;99.90
12632;DHT22;6381;45.748;12.106;2024-03-02T14:46:23;13.50;99.90
12632;DHT22;6381;45.748;12.106;2024-03-02T14:48:54;13.30;99.90
12632;DHT22;6381;45.748;12.106;2024-03-02T14:51:30;13.10;99.90
12632;DHT22;6381;45.748;12.106;2024-03-02T14:54:14;13.20;99.90
12632;DHT22;6381;45.748;12.106;2024-03-02T14:56:50;13.10;99.90
12632;DHT22;6381;45.748;12.106;2024-03-02T14:59:42;13.10;99.90
12632;DHT22;6381;45.748;12.106;2024-03-02T15:02:26;13.00;99.90
12632;DHT22;6381;45.748;12.106;2024-03-02T15:05:18;12.80;99.90
12632;DHT22;6381;45.748;12.106;2024-03-02T15:08:11;12.80;99.90
12632;DHT22;6381;45.748;12.106;2024-03-02T15:10:57;12.70;99.90
12632;DHT22;6381;45.748;12.106;2024-03-02T15:13:30;12.70;99.90
12632;DHT22;6381;45.748;12.106;2024-03-02T15:16:11;12.60;99.90
12632;DHT22;6381;45.748;12.106;2024-03-02T15:19:03;12.50;99.90
12632;DHT22;6381;45.748;12.106;2024-03-02T15:21:37;12.60;99.90
12632;DHT22;6381;45.748;12.106;2024-03-02T15:24:11;12.60;99.90
12632;DHT22;6381;45.748;12.106;2024-03-02T15:26:48;12.50;99.90
12632;DHT22;6381;45.748;12.106;2024-03-02T15:29:51;12.50;99.90
12632;DHT22;6381;45.748;12.106;2024-03-02T15:32:48;12.40;99.90
12632;DHT22;6381;45.748;12.106;2024-03-02T15:35:35;12.40;99.90
12632;DHT22;6381;45.748;12.106;2024-03-02T15:38:14;12.40;99.90
12632;DHT22;6381;45.748;12.106;2024-03-02T15:41:01;12.50;99.90
12632;DHT22;6381;45.748;12.106;2024-03-02T15:43:32;12.40;99.90
12632;DHT22;6381;45.748;12.106;2024-03-02T15:46:16;12.20;99.90
12632;DHT22;6381;45.748;12.106;2024-03-02T15:48:54;12.10;99.90
12632;DHT22;6381;45.748;12.106;2024-03-02T15:51:33;12.10;99.90
12632;DHT22;6381;45.748;12.106;2024-03-02T15:54:07;12.10;99.90
12632;DHT22;6381;45.748;12.106;2024-03-02T15:56:43;12.10;99.90
12632;DHT22;6381;45.748;12.106;2024-03-02T15:59:15;12.10;99.90
12632;DHT22;6381;45.748;12.106;2024-03-02T16:01:45;12.10;99.90
12632;DHT22;6381;45.748;12.106;2024-03-02T16:04:21;12.00;99.90
12632;DHT22;6381;45.748;12.106;2024-03-02T16:07:04;12.10;99.90
12632;DHT22;6381;45.748;12.106;2024-03-02T16:09:42;12.10;99.90